createdAt,value
2018-05-27T00:02:11.169Z,98003.95
2018-05-27T00:04:40.076Z,98004.61
2018-05-27T00:07:08.857Z,98004.57
2018-05-27T00:09:37.633Z,97998.88
2018-05-27T00:12:06.443Z,97998.02
2018-05-27T00:14:35.231Z,97984.62
2018-05-27T00:17:04.253Z,97979.50
2018-05-27T00:19:33.067Z,97979.75
2018-05-27T00:22:01.812Z,97983.94
2018-05-27T00:24:30.558Z,97985.39
2018-05-27T00:26:59.406Z,97976.89
2018-05-27T00:29:28.184Z,97972.48
2018-05-27T00:31:56.962Z,97967.48
2018-05-27T00:34:25.783Z,97965.74
2018-05-27T00:36:55.330Z,97963.00
2018-05-27T00:39:24.118Z,97966.58
2018-05-27T00:41:52.944Z,97960.98
2018-05-27T00:44:21.760Z,97961.38
2018-05-27T00:46:50.553Z,97961.17
2018-05-27T00:49:23.166Z,97957.52
2018-05-27T00:51:55.262Z,97957.84
2018-05-27T00:54:32.148Z,97964.45
2018-05-27T00:57:02.963Z,97958.47
2018-05-27T00:59:35.503Z,97953.95
2018-05-27T01:02:05.810Z,97960.00
2018-05-27T01:04:41.369Z,97952.50
2018-05-27T01:07:17.228Z,97951.81
2018-05-27T01:09:51.578Z,97953.16
2018-05-27T01:12:26.632Z,97954.84
2018-05-27T01:15:01.428Z,97944.55
2018-05-27T01:17:38.460Z,97945.91
2018-05-27T01:20:13.396Z,97947.98
2018-05-27T01:22:48.034Z,97941.80
2018-05-27T01:25:22.015Z,97945.26
2018-05-27T01:27:58.067Z,97939.69
2018-05-27T01:30:34.113Z,97934.72
2018-05-27T01:33:12.081Z,97935.67
2018-05-27T01:35:52.720Z,97945.13
2018-05-27T01:38:28.911Z,97941.31
2018-05-27T01:41:03.678Z,97943.22
2018-05-27T01:43:34.374Z,97951.38
2018-05-27T01:46:06.183Z,97946.58
2018-05-27T01:48:36.519Z,97944.41
2018-05-27T01:51:14.509Z,97942.99
2018-05-27T01:53:45.186Z,97937.80
2018-05-27T01:56:18.752Z,97928.02
2018-05-27T01:58:50.784Z,97925.89
2018-05-27T02:01:25.021Z,97923.16
2018-05-27T02:04:03.106Z,97924.02
2018-05-27T02:06:37.065Z,97924.93
2018-05-27T02:09:12.291Z,97918.30
2018-05-27T02:11:47.791Z,97910.19
2018-05-27T02:14:24.829Z,97906.94
2018-05-27T02:19:38.819Z,97911.52
2018-05-27T02:22:14.700Z,97913.26
2018-05-27T02:24:47.481Z,97909.16
2018-05-27T02:27:24.562Z,97899.95
2018-05-27T02:29:59.327Z,97900.81
2018-05-27T02:32:32.094Z,97899.30
2018-05-27T02:35:10.695Z,97897.56
2018-05-27T02:37:45.071Z,97891.02
2018-05-27T02:40:21.405Z,97893.12
2018-05-27T02:42:55.443Z,97897.47
2018-05-27T02:45:28.490Z,97901.48
2018-05-27T02:48:02.045Z,97898.23
2018-05-27T02:50:35.603Z,97898.19
2018-05-27T02:53:08.638Z,97899.14
2018-05-27T02:55:43.041Z,97894.41
2018-05-27T02:58:17.147Z,97897.69
2018-05-27T03:00:48.168Z,97896.15
2018-05-27T03:03:24.408Z,97894.72
2018-05-27T03:05:57.719Z,97893.74
2018-05-27T03:08:37.016Z,97893.53
2018-05-27T03:11:14.031Z,97900.02
2018-05-27T03:16:23.387Z,97890.90
2018-05-27T03:18:57.238Z,97900.08
2018-05-27T03:21:26.809Z,97901.54
2018-05-27T03:23:55.631Z,97900.70
2018-05-27T03:26:24.389Z,97908.82
2018-05-27T03:28:53.164Z,97911.31
2018-05-27T03:31:21.953Z,97910.60
2018-05-27T03:33:50.707Z,97905.75
2018-05-27T03:36:19.464Z,97904.70
2018-05-27T03:38:48.229Z,97904.93
2018-05-27T03:41:17.019Z,97898.49
2018-05-27T03:43:45.761Z,97899.16
2018-05-27T03:46:15.426Z,97898.20
2018-05-27T03:48:45.279Z,97894.83
2018-05-27T03:51:14.076Z,97903.94
2018-05-27T03:53:42.892Z,97904.13
2018-05-27T03:56:11.677Z,97899.26
2018-05-27T03:58:40.451Z,97896.59
2018-05-27T04:01:10.000Z,97897.76
2018-05-27T04:03:38.718Z,97886.77
2018-05-27T04:06:19.273Z,97894.50
2018-05-27T04:08:48.959Z,97892.89
2018-05-27T04:11:19.353Z,97900.56
2018-05-27T04:13:48.154Z,97895.86
2018-05-27T04:16:16.905Z,97901.89
2018-05-27T04:18:45.925Z,97902.54
2018-05-27T04:21:14.712Z,97900.80
2018-05-27T04:23:43.457Z,97898.88
2018-05-27T04:26:12.264Z,97904.56
2018-05-27T04:28:41.097Z,97901.58
2018-05-27T04:31:09.849Z,97904.16
2018-05-27T04:33:38.613Z,97899.45
2018-05-27T04:36:07.545Z,97906.38
2018-05-27T04:38:37.051Z,97906.16
2018-05-27T04:41:05.927Z,97901.34
2018-05-27T04:43:34.659Z,97903.12
2018-05-27T04:46:04.194Z,97901.12
2018-05-27T04:48:32.949Z,97913.02
2018-05-27T04:51:01.716Z,97910.97
2018-05-27T04:53:30.470Z,97914.17
2018-05-27T04:55:59.332Z,97905.92
2018-05-27T04:58:28.145Z,97906.23
2018-05-27T05:00:56.926Z,97909.58
2018-05-27T05:03:25.674Z,97914.60
2018-05-27T05:05:54.526Z,97912.54
2018-05-27T05:08:23.358Z,97911.89
2018-05-27T05:10:52.125Z,97916.45
2018-05-27T05:13:20.934Z,97915.72
2018-05-27T05:15:49.686Z,97918.23
2018-05-27T05:18:18.577Z,97914.39
2018-05-27T05:20:47.388Z,97925.01
2018-05-27T05:23:17.003Z,97922.02
2018-05-27T05:25:45.744Z,97928.16
2018-05-27T05:28:14.509Z,97930.01
2018-05-27T05:30:43.300Z,97929.05
2018-05-27T05:33:12.071Z,97932.86
2018-05-27T05:35:41.622Z,97932.25
2018-05-27T05:38:10.384Z,97940.94
2018-05-27T05:40:39.204Z,97945.56
2018-05-27T05:43:07.978Z,97941.95
2018-05-27T05:45:36.793Z,97948.30
2018-05-27T05:48:05.563Z,97945.02
2018-05-27T05:50:34.396Z,97944.91
2018-05-27T05:53:03.154Z,97944.27
2018-05-27T05:55:31.950Z,97951.66
2018-05-27T05:58:00.686Z,97950.67
2018-05-27T06:00:29.458Z,97959.52
2018-05-27T06:02:58.254Z,97963.03
2018-05-27T06:05:27.037Z,97962.77
2018-05-27T06:07:55.768Z,97959.23
2018-05-27T06:10:24.545Z,97957.81
2018-05-27T06:12:53.323Z,97958.08
2018-05-27T06:15:22.101Z,97961.83
2018-05-27T06:17:51.624Z,97961.97
2018-05-27T06:20:20.378Z,97963.17
2018-05-27T06:22:49.893Z,97963.61
2018-05-27T06:25:18.734Z,97958.78
2018-05-27T06:27:48.581Z,97962.11
2018-05-27T06:30:17.403Z,97959.78
2018-05-27T06:32:46.204Z,97960.03
2018-05-27T06:35:14.962Z,97958.67
2018-05-27T06:37:43.732Z,97945.26
2018-05-27T06:40:12.505Z,97950.41
2018-05-27T06:42:41.274Z,97953.14
2018-05-27T06:45:10.034Z,97946.66
2018-05-27T06:47:38.780Z,97946.28
2018-05-27T06:50:07.520Z,97951.53
2018-05-27T06:52:36.310Z,97956.45
2018-05-27T06:55:05.071Z,97955.80
2018-05-27T06:57:33.792Z,97951.52
2018-05-27T07:00:02.535Z,97949.38
2018-05-27T07:02:31.423Z,97941.44
2018-05-27T07:05:00.398Z,97943.94
2018-05-27T07:07:29.145Z,97945.04
2018-05-27T07:09:58.680Z,97946.16
2018-05-27T07:12:27.439Z,97945.65
2018-05-27T07:14:56.203Z,97948.20
2018-05-27T07:17:25.713Z,97946.48
2018-05-27T07:19:54.532Z,97938.75
2018-05-27T07:22:23.307Z,97945.13
2018-05-27T07:24:52.267Z,97951.70
2018-05-27T07:27:21.169Z,97954.17
2018-05-27T07:29:50.025Z,97956.47
2018-05-27T07:32:19.476Z,97953.83
2018-05-27T07:34:48.170Z,97946.60
2018-05-27T07:37:16.910Z,97942.63
2018-05-27T07:39:46.908Z,97945.51
2018-05-27T07:42:15.652Z,97949.28
2018-05-27T07:44:44.397Z,97951.78
2018-05-27T07:47:13.139Z,97950.78
2018-05-27T07:49:42.375Z,97949.09
2018-05-27T07:52:11.153Z,97957.52
2018-05-27T07:54:39.970Z,97954.18
2018-05-27T07:57:08.765Z,97954.64
2018-05-27T07:59:37.488Z,97948.92
2018-05-27T08:02:06.639Z,97957.22
2018-05-27T08:04:35.465Z,97952.59
2018-05-27T08:07:04.262Z,97947.50
2018-05-27T08:09:32.951Z,97949.12
2018-05-27T08:12:01.696Z,97947.83
2018-05-27T08:14:30.487Z,97949.28
2018-05-27T08:16:59.238Z,97940.76
2018-05-27T08:19:28.772Z,97946.91
2018-05-27T08:21:57.510Z,97949.25
2018-05-27T08:24:26.369Z,97950.72
2018-05-27T08:26:55.136Z,97956.72
2018-05-27T08:29:23.985Z,97958.29
2018-05-27T08:31:52.731Z,97956.70
2018-05-27T08:34:21.504Z,97955.89
2018-05-27T08:36:51.340Z,97951.42
2018-05-27T08:39:21.162Z,97952.92
2018-05-27T08:41:49.911Z,97949.66
2018-05-27T08:44:18.681Z,97952.13
2018-05-27T08:46:47.516Z,97950.37
2018-05-27T08:49:17.053Z,97949.52
2018-05-27T08:51:46.635Z,97949.38
2018-05-27T08:54:15.674Z,97947.08
2018-05-27T08:56:45.165Z,97942.47
2018-05-27T08:59:13.982Z,97937.83
2018-05-27T09:01:42.937Z,97940.38
2018-05-27T09:04:11.740Z,97948.33
2018-05-27T09:06:40.476Z,97941.89
2018-05-27T09:09:09.317Z,97946.71
2018-05-27T09:11:38.204Z,97941.05
2018-05-27T09:14:06.981Z,97940.66
2018-05-27T09:16:35.829Z,97941.66
2018-05-27T09:19:04.663Z,97942.03
2018-05-27T09:21:34.170Z,97940.47
2018-05-27T09:24:02.927Z,97946.81
2018-05-27T09:26:31.738Z,97947.27
2018-05-27T09:29:00.476Z,97948.89
2018-05-27T09:31:29.292Z,97949.73
2018-05-27T09:33:58.030Z,97946.02
2018-05-27T09:36:27.596Z,97942.92
2018-05-27T09:38:56.427Z,97941.44
2018-05-27T09:41:25.176Z,97931.75
2018-05-27T09:43:53.912Z,97932.61
2018-05-27T09:46:23.489Z,97925.80
2018-05-27T09:48:52.611Z,97919.04
2018-05-27T09:51:21.356Z,97927.80
2018-05-27T09:53:50.276Z,97928.10
2018-05-27T09:56:19.868Z,97925.86
2018-05-27T09:58:48.659Z,97915.95
2018-05-27T10:01:17.481Z,97914.33
2018-05-27T10:03:46.308Z,97916.32
2018-05-27T10:06:15.045Z,97908.31
2018-05-27T10:08:43.851Z,97910.86
2018-05-27T10:11:12.631Z,97910.01
2018-05-27T10:13:41.418Z,97907.13
2018-05-27T10:16:10.212Z,97908.58
2018-05-27T10:18:39.064Z,97902.88
2018-05-27T10:21:07.861Z,97904.91
2018-05-27T10:23:36.722Z,97897.05
2018-05-27T10:26:05.601Z,97896.22
2018-05-27T10:28:34.956Z,97895.33
2018-05-27T10:31:04.800Z,97885.79
2018-05-27T10:33:34.318Z,97891.48
2018-05-27T10:36:03.106Z,97885.07
2018-05-27T10:38:32.627Z,97885.70
2018-05-27T10:41:01.433Z,97881.05
2018-05-27T10:43:30.194Z,97887.11
2018-05-27T10:45:59.031Z,97890.51
2018-05-27T10:48:28.011Z,97875.02
2018-05-27T10:50:57.901Z,97884.83
2018-05-27T10:53:27.453Z,97878.67
2018-05-27T10:55:56.230Z,97873.84
2018-05-27T10:58:24.982Z,97866.05
2018-05-27T11:00:55.052Z,97861.21
2018-05-27T11:03:24.350Z,97863.16
2018-05-27T11:05:55.925Z,97856.15
2018-05-27T11:08:24.640Z,97859.36
2018-05-27T11:10:55.310Z,97853.75
2018-05-27T11:13:24.522Z,97847.83
2018-05-27T11:15:53.778Z,97844.98
2018-05-27T11:18:22.557Z,97837.59
2018-05-27T11:20:52.270Z,97842.63
2018-05-27T11:23:21.909Z,97840.37
2018-05-27T11:25:50.715Z,97837.36
2018-05-27T11:28:19.657Z,97829.55
2018-05-27T11:30:48.425Z,97829.33
2018-05-27T11:33:17.277Z,97829.30
2018-05-27T11:35:46.025Z,97815.28
2018-05-27T11:38:14.919Z,97816.62
2018-05-27T11:40:44.588Z,97821.83
2018-05-27T11:43:13.347Z,97817.06
2018-05-27T11:45:42.100Z,97816.35
2018-05-27T11:48:10.903Z,97815.16
2018-05-27T11:50:39.652Z,97813.02
2018-05-27T11:53:08.493Z,97803.50
2018-05-27T11:55:37.324Z,97800.97
2018-05-27T11:58:06.073Z,97791.89
2018-05-27T12:00:34.838Z,97792.36
2018-05-27T12:03:03.606Z,97794.16
2018-05-27T12:05:32.398Z,97787.45
2018-05-27T12:08:01.166Z,97778.60
2018-05-27T12:10:30.012Z,97778.96
2018-05-27T12:12:58.813Z,97778.58
2018-05-27T12:15:28.253Z,97787.12
2018-05-27T12:17:58.072Z,97794.55
2018-05-27T12:20:27.731Z,97789.49
2018-05-27T12:22:57.048Z,97789.13
2018-05-27T12:25:26.157Z,97782.91
2018-05-27T12:27:54.944Z,97791.94
2018-05-27T12:30:23.764Z,97789.02
2018-05-27T12:32:52.671Z,97786.39
2018-05-27T12:35:22.251Z,97789.57
2018-05-27T12:37:51.074Z,97781.05
2018-05-27T12:40:19.871Z,97767.16
2018-05-27T12:42:48.675Z,97761.79
2018-05-27T12:45:17.513Z,97751.09
2018-05-27T12:47:46.327Z,97749.47
2018-05-27T12:50:15.051Z,97743.10
2018-05-27T12:52:43.824Z,97739.24
2018-05-27T12:55:12.686Z,97750.47
2018-05-27T12:57:42.215Z,97754.17
2018-05-27T13:00:11.001Z,97760.73
2018-05-27T13:02:39.805Z,97766.41
2018-05-27T13:05:08.581Z,97764.91
2018-05-27T13:07:38.057Z,97763.84
2018-05-27T13:10:08.286Z,97756.48
2018-05-27T13:12:37.677Z,97754.56
2018-05-27T13:15:06.411Z,97747.23
2018-05-27T13:17:35.934Z,97742.91
2018-05-27T13:20:04.770Z,97735.02
2018-05-27T13:22:33.485Z,97739.20
2018-05-27T13:25:02.373Z,97744.18
2018-05-27T13:27:31.151Z,97738.45
2018-05-27T13:30:00.243Z,97745.58
2018-05-27T13:32:29.040Z,97741.83
2018-05-27T13:34:57.892Z,97741.93
2018-05-27T13:37:27.850Z,97746.03
2018-05-27T13:39:58.198Z,97751.16
2018-05-27T13:42:27.923Z,97759.91
2018-05-27T13:44:56.729Z,97761.88
2018-05-27T13:47:25.890Z,97759.00
2018-05-27T13:49:54.656Z,97757.04
2018-05-27T13:52:23.389Z,97756.05
2018-05-27T13:54:52.197Z,97760.77
2018-05-27T13:57:20.971Z,97758.89
2018-05-27T13:59:49.755Z,97759.98
2018-05-27T14:02:18.597Z,97761.02
2018-05-27T14:04:47.385Z,97768.43
2018-05-27T14:07:16.114Z,97769.97
2018-05-27T14:09:44.909Z,97765.48
2018-05-27T14:12:13.678Z,97768.84
2018-05-27T14:14:42.492Z,97769.00
2018-05-27T14:17:11.334Z,97768.22
2018-05-27T14:19:40.204Z,97772.31
2018-05-27T14:22:09.058Z,97762.63
2018-05-27T14:24:38.581Z,97767.14
2018-05-27T14:27:07.332Z,97776.17
2018-05-27T14:29:36.863Z,97777.88
2018-05-27T14:32:05.617Z,97782.63
2018-05-27T14:34:34.437Z,97777.28
2018-05-27T14:37:03.183Z,97791.11
2018-05-27T14:39:33.300Z,97788.81
2018-05-27T14:42:02.397Z,97798.58
2018-05-27T14:44:31.130Z,97797.98
2018-05-27T14:46:59.928Z,97798.52
2018-05-27T14:49:29.983Z,97806.05
2018-05-27T14:51:59.885Z,97806.10
2018-05-27T14:54:30.940Z,97808.72
2018-05-27T14:56:59.689Z,97805.64
2018-05-27T14:59:30.391Z,97809.62
2018-05-27T15:02:01.574Z,97804.84
2018-05-27T15:04:33.599Z,97811.59
2018-05-27T15:07:04.378Z,97798.59
2018-05-27T15:09:33.121Z,97802.47
2018-05-27T15:12:03.159Z,97798.50
2018-05-27T15:14:31.930Z,97806.38
2018-05-27T15:17:01.870Z,97797.92
2018-05-27T15:19:31.372Z,97799.11
2018-05-27T15:22:00.353Z,97803.64
2018-05-27T15:24:31.003Z,97811.61
2018-05-27T15:27:00.177Z,97797.70
2018-05-27T15:29:30.771Z,97798.20
2018-05-27T15:32:00.959Z,97795.41
2018-05-27T15:34:32.466Z,97797.55
2018-05-27T15:37:01.247Z,97793.80
2018-05-27T15:39:31.242Z,97797.89
2018-05-27T15:42:01.214Z,97795.20
2018-05-27T15:44:31.046Z,97793.02
2018-05-27T15:47:00.561Z,97789.92
2018-05-27T15:49:29.339Z,97790.22
2018-05-27T15:51:58.409Z,97793.70
2018-05-27T15:54:27.963Z,97787.02
2018-05-27T15:56:56.806Z,97790.61
2018-05-27T15:59:27.528Z,97798.16
2018-05-27T16:01:56.323Z,97801.09
2018-05-27T16:04:25.052Z,97796.79
2018-05-27T16:06:55.312Z,97798.28
2018-05-27T16:09:24.080Z,97790.45
2018-05-27T16:11:52.863Z,97791.16
2018-05-27T16:14:21.637Z,97788.33
2018-05-27T16:16:50.438Z,97786.59
2018-05-27T16:19:19.306Z,97791.97
2018-05-27T16:21:48.901Z,97791.81
2018-05-27T16:24:18.102Z,97791.02
2018-05-27T16:26:47.698Z,97796.03
2018-05-27T16:29:16.841Z,97804.08
2018-05-27T16:31:46.228Z,97799.93
2018-05-27T16:34:14.991Z,97803.08
2018-05-27T16:36:45.351Z,97811.03
2018-05-27T16:39:14.251Z,97807.36
2018-05-27T16:41:43.056Z,97808.67
2018-05-27T16:44:12.083Z,97814.44
2018-05-27T16:46:40.949Z,97804.41
2018-05-27T16:49:10.559Z,97800.03
2018-05-27T16:51:39.610Z,97799.56
2018-05-27T16:54:08.698Z,97792.41
2018-05-27T16:56:37.911Z,97801.56
2018-05-27T16:59:08.096Z,97806.84
2018-05-27T17:01:36.860Z,97805.23
2018-05-27T17:04:05.755Z,97801.69
2018-05-27T17:06:35.663Z,97801.61
2018-05-27T17:09:04.425Z,97803.63
2018-05-27T17:11:33.702Z,97810.20
2018-05-27T17:14:02.632Z,97811.22
2018-05-27T17:16:33.125Z,97805.45
2018-05-27T17:19:03.012Z,97808.06
2018-05-27T17:21:33.039Z,97810.67
2018-05-27T17:24:03.634Z,97810.91
2018-05-27T17:26:32.668Z,97816.52
2018-05-27T17:29:01.483Z,97809.98
2018-05-27T17:31:30.287Z,97813.14
2018-05-27T17:33:59.133Z,97813.41
2018-05-27T17:36:30.364Z,97813.06
2018-05-27T17:38:59.249Z,97814.86
2018-05-27T17:41:28.019Z,97821.65
2018-05-27T17:43:57.781Z,97818.05
2018-05-27T17:46:26.701Z,97818.53
2018-05-27T17:48:55.490Z,97810.26
2018-05-27T17:51:25.229Z,97812.80
2018-05-27T17:53:54.260Z,97810.11
2018-05-27T17:56:23.172Z,97814.16
2018-05-27T17:58:53.729Z,97813.31
2018-05-27T18:01:22.609Z,97821.27
2018-05-27T18:03:52.152Z,97823.58
2018-05-27T18:06:20.952Z,97821.50
2018-05-27T18:08:49.872Z,97820.80
2018-05-27T18:11:20.203Z,97817.58
2018-05-27T18:13:49.964Z,97822.80
2018-05-27T18:16:19.944Z,97821.61
2018-05-27T18:18:48.990Z,97814.02
2018-05-27T18:21:18.004Z,97824.59
2018-05-27T18:23:46.850Z,97821.39
2018-05-27T18:26:16.006Z,97826.23
2018-05-27T18:28:44.902Z,97831.95
2018-05-27T18:31:14.652Z,97836.45
2018-05-27T18:33:43.455Z,97842.70
2018-05-27T18:36:12.268Z,97842.66
2018-05-27T18:38:41.650Z,97836.59
2018-05-27T18:41:10.377Z,97838.19
2018-05-27T18:43:39.894Z,97844.86
2018-05-27T18:46:09.629Z,97848.13
2018-05-27T18:48:38.354Z,97851.54
2018-05-27T18:51:07.215Z,97854.24
2018-05-27T18:53:36.109Z,97864.81
2018-05-27T18:56:05.665Z,97860.92
2018-05-27T18:58:35.643Z,97865.89
2018-05-27T19:01:06.561Z,97861.38
2018-05-27T19:03:35.473Z,97869.95
2018-05-27T19:06:04.308Z,97876.77
2018-05-27T19:08:33.116Z,97875.45
2018-05-27T19:11:02.819Z,97876.36
2018-05-27T19:13:31.576Z,97884.92
2018-05-27T19:16:00.336Z,97885.95
2018-05-27T19:18:29.180Z,97892.03
2018-05-27T19:20:57.935Z,97892.48
2018-05-27T19:23:28.376Z,97895.73
2018-05-27T19:25:58.887Z,97891.47
2018-05-27T19:28:27.875Z,97895.56
2018-05-27T19:30:56.707Z,97907.83
2018-05-27T19:33:26.847Z,97904.31
2018-05-27T19:35:55.577Z,97913.08
2018-05-27T19:41:22.338Z,97904.83
2018-05-27T19:43:51.771Z,97902.30
2018-05-27T19:46:20.540Z,97903.03
2018-05-27T19:48:49.289Z,97905.02
2018-05-27T19:51:18.050Z,97904.83
2018-05-27T19:53:47.292Z,97901.41
2018-05-27T19:56:16.080Z,97898.64
2018-05-27T19:58:44.857Z,97900.27
2018-05-27T20:01:13.685Z,97900.80
2018-05-27T20:03:42.624Z,97901.02
2018-05-27T20:06:12.159Z,97896.56
2018-05-27T20:08:40.946Z,97894.95
2018-05-27T20:11:09.726Z,97894.52
2018-05-27T20:13:38.506Z,97885.07
2018-05-27T20:16:07.313Z,97886.91
2018-05-27T20:18:37.169Z,97883.27
2018-05-27T20:21:08.485Z,97879.37
2018-05-27T20:23:37.294Z,97874.48
2018-05-27T20:26:07.148Z,97874.05
2018-05-27T20:28:35.958Z,97875.53
2018-05-27T20:31:04.836Z,97885.27
2018-05-27T20:33:36.848Z,97888.75
2018-05-27T20:36:05.738Z,97890.82
2018-05-27T20:38:35.016Z,97890.66
2018-05-27T20:41:04.027Z,97890.83
2018-05-27T20:43:32.823Z,97889.52
2018-05-27T20:46:01.828Z,97895.31
2018-05-27T20:48:30.592Z,97895.25
2018-05-27T20:50:59.348Z,97890.00
2018-05-27T20:53:29.909Z,97884.38
2018-05-27T20:55:59.517Z,97878.85
2018-05-27T20:58:28.801Z,97877.50
2018-05-27T21:00:57.622Z,97884.03
2018-05-27T21:03:26.385Z,97872.26
2018-05-27T21:05:55.148Z,97880.46
2018-05-27T21:08:23.934Z,97873.46
2018-05-27T21:10:53.457Z,97875.23
2018-05-27T21:13:22.353Z,97873.18
2018-05-27T21:15:51.871Z,97877.56
2018-05-27T21:18:20.592Z,97860.63
2018-05-27T21:20:49.383Z,97869.52
2018-05-27T21:23:18.162Z,97847.70
2018-05-27T21:25:46.886Z,97845.47
2018-05-27T21:28:18.189Z,97842.06
2018-05-27T21:30:49.976Z,97841.80
2018-05-27T21:33:22.245Z,97838.09
2018-05-27T21:35:57.808Z,97831.27
2018-05-27T21:38:29.194Z,97833.76
2018-05-27T21:41:01.086Z,97834.70
2018-05-27T21:43:32.479Z,97837.20
2018-05-27T21:46:03.346Z,97839.71
2018-05-27T21:48:42.005Z,97853.97
2018-05-27T21:51:18.991Z,97852.14
2018-05-27T21:53:50.961Z,97864.49
2018-05-27T21:56:25.130Z,97873.26
2018-05-27T21:58:59.983Z,97880.97
2018-05-27T22:01:39.131Z,97876.02
2018-05-27T22:04:15.163Z,97885.50
2018-05-27T22:06:49.892Z,97881.58
2018-05-27T22:09:24.903Z,97881.42
2018-05-27T22:11:57.805Z,97885.60
2018-05-27T22:14:30.669Z,97877.97
2018-05-27T22:17:03.280Z,97877.16
2018-05-27T22:19:36.970Z,97880.77
2018-05-27T22:22:09.986Z,97875.83
2018-05-27T22:24:43.727Z,97880.50
2018-05-27T22:27:18.151Z,97888.08
2018-05-27T22:29:53.152Z,97886.64
2018-05-27T22:32:26.394Z,97885.91
2018-05-27T22:34:58.080Z,97874.21
2018-05-27T22:37:32.938Z,97885.08
2018-05-27T22:40:10.521Z,97878.44
2018-05-27T22:42:45.603Z,97875.48
2018-05-27T22:48:03.865Z,97875.23
2018-05-27T22:50:34.170Z,97869.33
2018-05-27T22:53:12.464Z,97866.66
2018-05-27T22:55:46.786Z,97866.37
2018-05-27T22:58:23.130Z,97859.34
2018-05-27T23:00:55.177Z,97853.42
2018-05-27T23:03:27.229Z,97854.90
2018-05-27T23:06:01.597Z,97845.33
2018-05-27T23:08:35.233Z,97850.38
2018-05-27T23:11:10.912Z,97849.59
2018-05-27T23:13:43.005Z,97841.75
2018-05-27T23:16:18.565Z,97840.78
2018-05-27T23:18:50.939Z,97834.48
2018-05-27T23:21:25.066Z,97836.69
2018-05-27T23:24:00.857Z,97839.66
2018-05-27T23:26:33.603Z,97840.95
2018-05-27T23:29:05.651Z,97838.38
2018-05-27T23:31:45.732Z,97842.70
2018-05-27T23:34:21.195Z,97842.89
2018-05-27T23:36:55.047Z,97840.47
2018-05-27T23:39:27.547Z,97840.20
2018-05-27T23:42:04.593Z,97847.03
2018-05-27T23:44:38.472Z,97844.03
2018-05-27T23:47:16.399Z,97846.50
2018-05-27T23:49:54.969Z,97848.56
2018-05-27T23:52:31.207Z,97847.06
2018-05-27T23:55:07.453Z,97844.91
2018-05-27T23:57:41.261Z,97834.46
